Wednesday, January 16, 2019, 12:00 AM GMT
Back to Local

CYHU, Saint Hubert Airport

Location: , , Canada Lat: 45.517
Local Time: 12:00 AM GMT ( 0:00 GMT) Lon: -73.417
Time Zone: GMT Elev: 88 ft

Show me the last for .
Show Coded

Time T Td Feel RH Dir Speed Gust Alt SLP Vis Weather Sky Remarks
2019-01-15 23:27 23 21 15 92 170° 7 - 30.02 30.03 7 -SN BKN010 OVC016 None
2019-01-15 23:22 23 21 16 92 180° 6 - 30.03 30.03 5 -SN BKN010 OVC016 None
2019-01-15 23:08 23 21 13 92 170° 9 - 30.03 30.04 7 -SN OVC012 None
2019-01-15 23:00 23 21 15 92 170° 7 - 30.03 30.04 3 -SN BKN012 BKN050 OVC060 None
2019-01-15 22:16 23 21 15 92 180° 7 - 30.04 30.04 3 -SN OVC010 None
2019-01-15 22:08 25 21 18 85 180° 6 - 30.04 30.05 2 -SN OVC012 None
2019-01-15 22:00 25 21 18 85 170° 6 - 30.04 30.05 5 -SN BKN012 OVC050 None
2019-01-15 21:44 25 21 18 85 180° 6 - 30.04 30.05 5 -SN BKN012 OVC055 None
2019-01-15 21:01 25 21 19 85 200° 5 - 30.05 30.06 3 -SN FEW017 OVC055 None
2019-01-15 21:00 25 21 19 85 190° 5 - 30.05 30.06 2 -SN FEW017 OVC055 None
2019-01-15 20:51 25 19 19 79 170° 5 - 30.05 30.06 2 -SN FEW017 OVC055 None
2019-01-15 20:22 25 19 19 79 170° 5 - 30.05 30.06 5 -SN OVC055 None
2019-01-15 20:00 25 19 19 79 180° 5 - 30.06 30.07 7 -SN SCT019 OVC055 None
2019-01-15 19:28 25 19 - 79 200° 2 - 30.06 30.07 6 -SN FEW047 BKN060 OVC069 None
2019-01-15 19:00 25 19 - 79 230° 2 - 30.07 30.08 5 -SN FEW013 BKN046 OVC060 None
2019-01-15 18:47 25 19 19 79 220° 5 - 30.07 30.08 5 -SN FEW013 BKN050 OVC060 None
2019-01-15 18:13 25 19 19 79 210° 5 - 30.07 30.08 8 -SN SCT013 OVC060 None
2019-01-15 18:00 23 18 17 79 220° 5 - 30.07 30.09 8 -SN OVC013 None
2019-01-15 17:44 23 19 16 85 220° 6 - 30.08 30.09 7 -SN OVC013 None
2019-01-15 17:29 23 19 16 85 210° 6 - 30.08 30.09 5 -SN OVC013 None
2019-01-15 17:03 23 18 - 79 Variable 2 - 30.09 30.10 6 -SN BKN013 OVC049 None
2019-01-15 17:01 23 18 - 79 Variable 2 - 30.09 30.10 5 -SN BKN013 OVC049 None
2019-01-15 17:00 23 18 - 79 Variable 2 - 30.09 30.10 6 -SN BKN013 OVC049 None
2019-01-15 16:57 23 18 17 79 210° 5 - 30.10 30.11 6 -SN BKN013 OVC049 None
2019-01-15 16:53 23 18 - 79 Variable 2 - 30.10 30.11 5 -SN BKN013 OVC049 None
2019-01-15 16:52 23 18 - 79 Variable 2 - 30.10 30.11 6 -SN BKN013 OVC049 None
2019-01-15 16:49 23 18 - 79 - Calm - 30.10 30.11 6 -SN SCT013 SCT019 OVC049 None
2019-01-15 16:39 23 18 - 79 Variable 2 - 30.10 30.11 9 FEW013 SCT019 OVC049 None
2019-01-15 16:25 23 18 - 79 - Calm - 30.11 30.12 9 FEW013 BKN019 OVC047 None
2019-01-15 16:14 23 18 - 79 - Calm - 30.12 30.13 8 -SN SCT013 OVC019 None
2019-01-15 16:00 21 18 - 85 - Calm - 30.13 30.14 8 FEW013 OVC021 None
2019-01-15 15:59 21 18 - 85 - Calm - 30.13 30.14 9 FEW013 OVC021 None
2019-01-15 15:18 21 18 - 85 - Calm - 30.13 30.14 9 -SN BKN021 OVC045 None
2019-01-15 15:16 21 18 - 85 - Calm - 30.13 30.14 9 BKN021 OVC045 None
2019-01-15 15:15 21 18 - 85 - Calm - 30.13 30.14 9 -SN BKN021 OVC045 None
2019-01-15 15:00 21 16 - 79 - Calm - 30.13 30.14 9 -SN SCT021 OVC045 None
2019-01-15 14:55 21 18 - 85 - Calm - 30.13 30.14 9 -SN SCT021 OVC045 None
2019-01-15 14:36 21 16 - 79 240° 2 - 30.13 30.14 9 -SN OVC019 None
2019-01-15 14:29 21 16 16 79 240° 3 - 30.13 30.14 9 OVC019 None
2019-01-15 14:05 21 16 16 79 250° 3 - 30.12 30.13 9 -SN BKN019 OVC034 None
2019-01-15 14:00 21 18 16 85 250° 3 - 30.12 30.13 9 BKN019 OVC032 None
2019-01-15 13:50 19 18 14 92 240° 3 - 30.12 30.13 9 -SN BKN019 BKN026 OVC034 None
2019-01-15 13:47 19 18 14 92 240° 3 - 30.12 30.13 9 -SN SCT019 BKN029 OVC034 None
2019-01-15 13:41 19 16 14 85 240° 3 - 30.12 30.13 8 BKN019 OVC029 None
2019-01-15 13:35 19 16 13 85 240° 5 - 30.12 30.13 8 SCT021 OVC029 None
2019-01-15 13:21 19 16 11 85 250° 6 - 30.11 30.12 6 -SN OVC029 None
2019-01-15 13:00 19 16 13 85 270° 5 - 30.11 30.12 5 -SN OVC029 None
2019-01-15 12:59 19 16 13 85 270° 5 - 30.11 30.12 5 -SN OVC029 None
2019-01-15 12:30 19 16 13 85 300° 5 - 30.11 30.12 6 -SN OVC027 None
2019-01-15 12:19 19 16 10 85 280° 7 - 30.11 30.12 5 -SN OVC027 None
2019-01-15 12:11 19 16 11 85 270° 6 - 30.11 30.12 9 -SN BKN027 OVC037 None
2019-01-15 12:03 19 16 9 85 270° 8 - 30.11 30.12 9 BKN027 OVC037 None
2019-01-15 12:00 19 16 9 85 270° 9 - 30.11 30.12 9 -SN BKN027 OVC037 None
2019-01-15 11:49 19 16 11 85 260° 6 - 30.10 30.11 9 -SN OVC027 None
2019-01-15 11:39 19 16 10 85 260° 7 - 30.10 30.11 9 OVC027 None
2019-01-15 11:24 19 16 10 85 270° 7 - 30.10 30.11 9 -SN OVC027 None
2019-01-15 11:11 19 16 10 85 270° 7 - 30.10 30.11 9 OVC025 None
2019-01-15 11:01 19 16 10 85 260° 7 - 30.10 30.11 9 -SN OVC025 None
2019-01-15 11:00 19 16 11 85 260° 6 - 30.10 30.11 9 OVC025 None
2019-01-15 10:57 19 16 13 85 260° 5 - 30.10 30.11 9 OVC025 None
2019-01-15 10:52 19 16 11 85 270° 6 - 30.10 30.11 9 OVC023 None
2019-01-15 10:38 19 16 11 85 270° 6 - 30.10 30.11 6 -SN OVC021 None
2019-01-15 10:30 19 16 9 85 270° 8 - 30.10 30.11 4 -SN OVC019 None
2019-01-15 10:24 19 16 9 85 280° 8 - 30.10 30.11 3 -RASN BKN015 OVC022 None
2019-01-15 10:22 19 16 9 85 260° 9 - 30.10 30.11 3 -RA BR BKN015 OVC022 None
2019-01-15 10:21 19 16 9 85 260° 8 - 30.10 30.11 3 -FZRA BR BKN015 OVC022 None
2019-01-15 10:00 19 16 10 85 260° 7 - 30.10 30.11 3 -FZRA BR OVC013 None
2019-01-15 09:44 19 16 10 85 250° 7 - 30.10 30.11 3 -FZRA BR OVC015 None
2019-01-15 09:38 19 16 10 85 260° 7 - 30.10 30.11 3 -FZRA -SN BKN013 OVC020 None
2019-01-15 09:35 19 16 10 85 260° 7 - 30.10 30.11 3 -SN BKN013 OVC020 None
2019-01-15 09:24 19 14 9 79 260° 8 - 30.10 30.11 5 -SN OVC018 None
2019-01-15 09:00 19 14 8 79 250° 10 - 30.10 30.11 9 -SN OVC020 None
2019-01-15 08:10 19 12 8 73 240° 10 - 30.12 30.13 9 -SN OVC016 None
2019-01-15 08:00 19 12 8 73 250° 10 - 30.12 30.13 9 OVC016 None
2019-01-15 07:00 19 12 10 73 230° 7 - 30.12 30.13 9 OVC023 None
2019-01-15 06:42 19 12 11 73 220° 6 - 30.12 30.13 9 OVC023 None
2019-01-15 06:00 18 12 7 78 230° 8 - 30.12 30.13 9 OVC025 None
2019-01-15 05:24 18 12 8 78 230° 7 - 30.13 30.14 9 OVC025 None
2019-01-15 05:00 18 12 8 78 220° 7 - 30.13 30.14 9 OVC023 None
2019-01-15 04:37 18 10 8 72 230° 7 - 30.14 30.15 9 OVC023 None
2019-01-15 04:17 16 10 6 78 210° 7 - 30.14 30.15 9 OVC025 None
2019-01-15 04:00 16 9 7 72 190° 6 - 30.15 30.16 9 OVC023 None
2019-01-15 03:00 18 9 6 67 240° 9 - 30.15 30.16 9 OVC023 None
2019-01-15 02:01 16 7 3 66 240° 10 - 30.16 30.17 9 BKN021 OVC028 None
2019-01-15 02:00 16 7 4 66 240° 9 - 30.16 30.17 9 SCT021 OVC028 None
2019-01-15 01:00 14 7 4 72 210° 7 - 30.18 30.19 9 SCT150 SCT180 BKN200 None

Support USWX by starting your Amazon purchase here.